• Join FlightAware (Why Join?)
  • Login
  • US Flag 
01:38AM EDT


 

Airport Tracker/Info


-or-


 

Live Flight TrackerFlight Track Log ✈ N43100 ✈ 01-May-2013 ✈ KSTP - KAXN

Flight Track Log - Related Links

Times and Time Zones

All times are in EDT time to prevent confusion due to time zone crossing. See the N43100 flight status page for this flight to view local times or setup timezone preferences in your user account.

Time Position Orientation Groundspeed Altitude Reporting Facility
EDT Latitude Longitude Course Direction KTS MPH feet Rate Location/Type
05:28PM 44.9667 -93.0667 300° West 107 123 2,100  Level Minneapolis TRACON
05:29PM 44.9833 -93.0333 55° Northeast 104 120 3,600 1,320 Climbing Minneapolis TRACON
05:30PM 44.9908 -93.0283 25° Northeast 100 115 3,900 360 Climbing Minneapolis Center
05:31PM 45.0258 -93.0222 North 125 144 4,100 60 Climbing Minneapolis Center
05:32PM 45.0686 -93.0197 North 152 175 4,100 -60 Level Minneapolis Center
05:33PM 45.0975 -93.0658 312° West 155 178 4,000  Descending Minneapolis Center
05:34PM 45.0660 -93.3780 300° West  Level Estimated
05:34PM 45.1261 -93.1056 316° Northwest 147 169 4,100  Level Minneapolis Center
05:35PM 45.1517 -93.1614 303° West 151 174 4,000  Descending Minneapolis Center
05:36PM 45.1583 -93.2217 279° West 156 180 4,100 360 Climbing Minneapolis Center
05:37PM 45.1656 -93.2775 280° West 146 168 4,800 720 Climbing Minneapolis Center
05:38PM 45.1719 -93.3242 281° West 125 144 5,600 540 Climbing Minneapolis Center
05:39PM 45.1831 -93.3700 289° West 125 144 6,000 180 Climbing Minneapolis Center
05:40PM 45.2075 -93.4281 301° West 143 165 6,000  Level Minneapolis Center
05:41PM 45.2250 -93.4806 295° West 149 171 6,000  Level Minneapolis Center
05:42PM 45.2439 -93.5333 297° West 150 173 6,000 360 Level Minneapolis Center
05:43PM 45.2603 -93.5789 297° West 132 152 6,800 660 Climbing Minneapolis Center
05:44PM 45.2747 -93.6211 296° West 122 140 7,400 600 Climbing Minneapolis Center
05:45PM 45.2900 -93.6642 297° West 122 140 8,100 240 Climbing Minneapolis Center
05:46PM 45.3122 -93.7283 296° West 150 173 8,000 -60 Descending Minneapolis Center
05:47PM 45.3297 -93.7828 295° West 153 176 8,000  Level Minneapolis Center
05:48PM 45.3489 -93.8347 298° West 150 173 8,000  Level Minneapolis Center
05:49PM 45.3675 -93.8875 297° West 149 171 8,000  Level Minneapolis Center
05:50PM 45.3844 -93.9403 295° West 148 170 8,000  Level Minneapolis Center
05:51PM 45.4069 -94.0033 297° West 150 173 8,000  Level Minneapolis Center
05:52PM 45.4250 -94.0564 296° West 149 171 8,000  Level Minneapolis Center
05:53PM 45.4422 -94.1114 294° West 153 176 8,000  Level Minneapolis Center
05:54PM 45.4606 -94.1653 296° West 151 174 8,000  Level Minneapolis Center
05:55PM 45.4794 -94.2222 295° West 159 183 8,000  Level Minneapolis Center
05:56PM 45.4972 -94.2769 295° West 155 178 8,000  Level Minneapolis Center
05:58PM 45.5203 -94.3400 298° West 149 171 8,100  Climbing Minneapolis Center
05:59PM 45.5414 -94.4064 294° West 153 176 8,100  Level Minneapolis Center
06:00PM 45.5558 -94.4625 290° West 152 175 8,100 -120 Level Minneapolis Center
06:01PM 45.5692 -94.5206 288° West 153 176 7,900 -480 Descending Minneapolis Center
06:02PM 45.5878 -94.5964 289° West 166 191 7,100 -540 Descending Minneapolis Center
06:03PM 45.6075 -94.6553 296° West 166 191 6,800 -480 Descending Minneapolis Center
06:04PM 45.6303 -94.7239 295° West 161 185 6,200 -660 Descending Minneapolis Center
06:05PM 45.6453 -94.7842 290° West 160 184 5,500 -660 Descending Minneapolis Center
06:06PM 45.6631 -94.8458 292° West 165 190 4,900 -600 Descending Minneapolis Center